Hovedside
METAR-TAF:

METAR-TAF

Lufthavner :

Heidrunfeltet

Heidrun, Norge

breddegrad: 65-19-30N, lengdegrad: 007-19-36E, høyde over havet: 0 m

Gjeldene værobservasjon

Denne rapporten ble laget for 22 minutter siden, klokken 06:50 UTC
Vind 31 kt fra Sørvest
Temperatur 11°C
Luftfuktighet 66%
Trykk 1016 hPa
Sikt 10 km eller mer
ingen skyer under 1500 m og ingen bygeskyer

METAR: ENHE 230650Z 23031KT CAVOK 11/05 Q1016 W///S4

Tid: 09:12 (07:12 UTC)

Varsel

Denne rapporten ble laget for 2 timer og 12 minutter siden, klokken 05:00 UTC
Varsel gyldig fra 23. klokken 06 UTC til 23. klokken 15 UTC
Vind 30 kt fra Sørvest
Sikt 10 km eller mer
ingen skyer under 1500 m og ingen bygeskyer
Blir
fra 23. klokken 10 UTC til 23. klokken 12 UTC
Vind 20 kt fra Sør-sørvest
Blir
fra 23. klokken 13 UTC til 23. klokken 15 UTC
Vind 8 kt fra skiftende retning

TAF: ENHE 230500Z 2306/2315 22030KT CAVOK BECMG 2310/2312 20020KT BECMG 2313/2315 VRB08KT

Værobservasjoner og værvarsel for over 4000 flyplasser (METAR- og TAF-rapporter).

Tilgjengelige stasjoner er representert av de røde og gule prikkene på kartet.

Hold musepekeren over prikken for å se navnet på stasjonen.

Klikk så for å se værobservasjoner og -varsler.

For å forandre kartet kan du klikke på den grønne knappen med svart kryss for å zoome inn, på den grønne knappen med strek for å zoome ut, eller på de grønne pilene for å se tilstøtende kart.


METAR-TAF: